Time;durP1;ratioP1;P1;durP2;ratioP2;P2;SDS_P1;SDS_P2;PMS_P1;PMS_P2;Temp;Humidity;BMP_temperature;BMP_pressure;BME280_temperature;BME280_humidity;BME280_pressure;Samples;Min_cycle;Max_cycle;Signal;HPM_P1;HPM_P2
2022/03/12 00:00:42;;;;;;;14.18;10.77;;;;;;;9.89;57.84;101268.16;5030307;28;20056;-79
2022/03/12 00:03:08;;;;;;;15.15;10.80;;;;;;;9.88;57.79;101261.25;5043308;28;20063;-79
2022/03/12 00:05:35;;;;;;;15.68;10.68;;;;;;;9.89;58.33;101262.94;5045718;28;20060;-79
2022/03/12 00:08:03;;;;;;;17.48;11.25;;;;;;;9.88;57.80;101266.47;5053529;28;20049;-79
2022/03/12 00:10:32;;;;;;;22.63;11.20;;;;;;;9.87;58.28;101262.13;5058331;28;20120;-79
2022/03/12 00:12:59;;;;;;;17.98;10.80;;;;;;;9.85;58.19;101266.56;5048083;28;20340;-79
2022/03/12 00:15:24;;;;;;;14.23;10.10;;;;;;;9.84;57.91;101268.31;5047731;28;20583;-79
2022/03/12 00:17:50;;;;;;;14.45;10.73;;;;;;;9.84;58.43;101272.69;5016634;28;20037;-79
2022/03/12 00:20:21;;;;;;;16.45;10.82;;;;;;;9.81;58.46;101278.88;5060553;28;20036;-79
2022/03/12 00:22:51;;;;;;;13.63;9.68;;;;;;;9.81;59.13;101278.88;5056043;28;20096;-79
2022/03/12 00:25:22;;;;;;;14.93;9.65;;;;;;;9.82;59.27;101287.56;5055902;28;20062;-79
2022/03/12 00:27:50;;;;;;;13.43;9.32;;;;;;;9.82;59.27;101291.03;5051267;28;20028;-79
2022/03/12 00:30:22;;;;;;;13.77;9.25;;;;;;;9.80;59.92;101288.50;5056263;28;20036;-79
2022/03/12 00:32:48;;;;;;;14.52;9.75;;;;;;;9.82;59.64;101291.03;5028833;28;20024;-79
2022/03/12 00:35:15;;;;;;;17.05;10.48;;;;;;;9.79;59.51;101294.63;5050432;28;20434;-79
2022/03/12 00:37:41;;;;;;;18.23;11.85;;;;;;;9.78;59.49;101295.50;5045487;28;20215;-79
2022/03/12 00:40:06;;;;;;;14.80;10.80;;;;;;;9.76;60.06;101299.94;5051513;28;20036;-79
2022/03/12 00:42:32;;;;;;;14.90;9.93;;;;;;;9.75;60.25;101300.84;5059997;28;20335;-79
2022/03/12 00:44:58;;;;;;;18.92;11.55;;;;;;;9.73;61.08;101302.66;5056038;28;20043;-79
2022/03/12 00:47:23;;;;;;;14.82;10.75;;;;;;;9.72;61.46;101306.16;5039761;28;20064;-79
2022/03/12 00:49:50;;;;;;;14.98;11.25;;;;;;;9.70;61.51;101300.13;5058290;28;20098;-79
2022/03/12 00:52:16;;;;;;;14.07;10.75;;;;;;;9.69;61.54;101303.63;5059316;28;20041;-79
2022/03/12 00:54:42;;;;;;;14.93;10.52;;;;;;;9.68;61.66;101309.78;5051295;28;20429;-79
2022/03/12 00:57:10;;;;;;;15.25;10.95;;;;;;;9.66;61.75;101316.81;5069741;28;20204;-79
2022/03/12 00:59:38;;;;;;;14.77;10.07;;;;;;;9.65;62.13;101314.25;5027592;28;20125;-79
2022/03/12 01:02:04;;;;;;;15.63;10.23;;;;;;;9.64;62.12;101316.00;5065360;28;20079;-79
2022/03/12 01:04:29;;;;;;;15.38;10.63;;;;;;;9.63;62.33;101316.03;5035049;28;20037;-79
2022/03/12 01:06:55;;;;;;;14.23;10.57;;;;;;;9.61;62.66;101316.94;5056979;28;20055;-79
2022/03/12 01:09:20;;;;;;;14.77;11.00;;;;;;;9.59;63.23;101312.66;5044748;28;20041;-79
2022/03/12 01:11:45;;;;;;;15.45;11.23;;;;;;;9.59;63.25;101310.03;5048055;28;20067;-79
2022/03/12 01:14:11;;;;;;;15.70;11.70;;;;;;;9.57;63.65;101307.47;5020650;28;20391;-79
2022/03/12 01:16:36;;;;;;;15.88;10.60;;;;;;;9.56;63.71;101312.75;5021541;28;20053;-79
2022/03/12 01:19:02;;;;;;;19.50;11.43;;;;;;;9.53;64.86;101311.09;5058321;28;20045;-79
2022/03/12 01:21:28;;;;;;;16.73;11.13;;;;;;;9.49;65.32;101313.81;5047412;28;20032;-79
2022/03/12 01:23:54;;;;;;;15.27;11.27;;;;;;;9.50;64.98;101313.78;5044825;28;20063;-79
2022/03/12 01:26:21;;;;;;;14.45;10.73;;;;;;;9.49;65.08;101312.06;5048890;28;20252;-79
2022/03/12 01:28:47;;;;;;;15.50;11.98;;;;;;;9.48;66.11;101312.09;5057621;28;20037;-79
2022/03/12 01:31:14;;;;;;;16.83;11.73;;;;;;;9.45;66.77;101318.28;5059877;28;20037;-79
2022/03/12 01:33:40;;;;;;;22.10;10.95;;;;;;;9.44;66.50;101313.97;5059120;28;20259;-79
2022/03/12 01:36:06;;;;;;;18.13;11.38;;;;;;;9.44;66.72;101318.31;5028050;28;20117;-79
2022/03/12 01:38:34;;;;;;;13.68;10.05;;;;;;;9.44;66.48;101316.56;5047287;28;20047;-79
2022/03/12 01:41:03;;;;;;;13.07;9.82;;;;;;;9.44;66.37;101308.72;5063350;28;20044;-78
2022/03/12 01:43:35;;;;;;;12.30;9.75;;;;;;;9.45;66.72;101296.50;5074863;28;20244;-79
2022/03/12 01:46:01;;;;;;;10.50;8.65;;;;;;;9.46;66.43;101299.09;5039624;28;20024;-79
2022/03/12 01:48:28;;;;;;;14.60;9.68;;;;;;;9.47;66.58;101300.78;5058872;28;20033;-79
2022/03/12 01:50:54;;;;;;;11.63;9.02;;;;;;;9.47;66.78;101307.78;5065457;28;20037;-79
2022/03/12 01:53:20;;;;;;;14.57;9.23;;;;;;;9.46;66.58;101317.38;5024857;28;20029;-79
2022/03/12 01:55:46;;;;;;;14.18;9.80;;;;;;;9.46;67.06;101312.16;5068085;28;20260;-79
2022/03/12 01:58:12;;;;;;;13.45;9.43;;;;;;;9.47;67.45;101316.47;5056272;28;20052;-79
2022/03/12 02:00:46;;;;;;;15.02;10.48;;;;;;;9.44;68.47;101316.56;5065969;28;20056;-79
2022/03/12 02:03:14;;;;;;;13.05;10.63;;;;;;;9.42;69.50;101320.97;5042906;28;20037;-79
2022/03/12 02:05:41;;;;;;;12.93;9.82;;;;;;;9.41;69.27;101316.66;5056942;28;20104;-79
2022/03/12 02:08:11;;;;;;;13.82;9.35;;;;;;;9.41;68.84;101314.03;5062079;28;20320;-79
2022/03/12 02:10:36;;;;;;;11.32;9.43;;;;;;;9.43;68.67;101327.06;5066781;28;20047;-79
2022/03/12 02:13:02;;;;;;;11.48;8.68;;;;;;;9.43;68.90;101322.69;5076494;28;20197;-79
2022/03/12 02:15:28;;;;;;;9.27;8.00;;;;;;;9.45;68.58;101323.50;5063558;28;20095;-79
2022/03/12 02:17:54;;;;;;;10.27;8.40;;;;;;;9.46;69.20;101326.97;5056372;28;20064;-78
2022/03/12 02:20:21;;;;;;;12.05;8.60;;;;;;;9.47;69.44;101337.38;5056796;28;20245;-79
2022/03/12 02:22:51;;;;;;;10.18;8.65;;;;;;;9.46;69.91;101333.06;5068701;28;20040;-79
2022/03/12 02:25:17;;;;;;;11.80;8.40;;;;;;;9.47;69.15;101332.16;5066384;28;20115;-79
2022/03/12 02:27:42;;;;;;;9.65;7.90;;;;;;;9.48;69.13;101346.97;5063938;28;20415;-79
2022/03/12 02:30:08;;;;;;;8.45;7.50;;;;;;;9.51;69.28;101343.38;5058476;28;20036;-79
2022/03/12 02:32:36;;;;;;;10.10;7.88;;;;;;;9.53;69.18;101338.97;5057594;28;20044;-79
2022/03/12 02:35:03;;;;;;;8.55;7.07;;;;;;;9.54;69.70;101343.31;5071944;28;20336;-79
2022/03/12 02:37:30;;;;;;;9.48;7.22;;;;;;;9.54;69.84;101333.69;5064659;28;20037;-79
2022/03/12 02:40:01;;;;;;;9.93;7.78;;;;;;;9.54;70.37;101333.69;5021088;28;20079;-79
2022/03/12 02:42:28;;;;;;;8.25;6.78;;;;;;;9.55;70.33;101337.16;5075954;28;20041;-79
2022/03/12 02:44:54;;;;;;;8.73;6.65;;;;;;;9.55;70.31;101329.31;5044814;28;20065;-79
2022/03/12 02:47:22;;;;;;;8.05;7.25;;;;;;;9.55;71.23;101334.53;5054971;28;20100;-79
2022/03/12 02:49:53;;;;;;;7.55;6.53;;;;;;;9.55;70.26;101337.16;5048205;28;20051;-79
2022/03/12 02:52:20;;;;;;;7.90;6.70;;;;;;;9.57;70.43;101338.84;5075075;28;20032;-79
2022/03/12 02:54:47;;;;;;;7.78;7.05;;;;;;;9.56;70.78;101334.50;5069368;28;20060;-79
2022/03/12 02:57:13;;;;;;;7.35;6.65;;;;;;;9.57;70.79;101345.84;5070092;28;20090;-79
2022/03/12 02:59:42;;;;;;;9.00;7.03;;;;;;;9.57;71.03;101348.47;5023669;28;20448;-79
2022/03/12 03:02:08;;;;;;;6.60;6.00;;;;;;;9.58;70.51;101351.00;5067688;28;20052;-79
2022/03/12 03:04:40;;;;;;;9.32;7.47;;;;;;;9.58;70.43;101340.53;5043173;28;20045;-79
2022/03/12 03:07:08;;;;;;;8.98;6.55;;;;;;;9.58;71.39;101353.63;5076374;28;20066;-79
2022/03/12 03:09:34;;;;;;;9.77;7.10;;;;;;;9.56;72.21;101350.19;5071961;28;20047;-79
2022/03/12 03:12:03;;;;;;;8.70;5.90;;;;;;;9.56;71.94;101357.19;5043370;28;20244;-79
2022/03/12 03:14:28;;;;;;;6.70;6.00;;;;;;;9.57;71.82;101348.47;5051391;28;20112;-79
2022/03/12 03:16:56;;;;;;;7.25;5.82;;;;;;;9.57;71.41;101353.69;5074223;28;20040;-79
2022/03/12 03:19:25;;;;;;;6.70;5.35;;;;;;;9.58;71.41;101358.84;5059357;28;20041;-79
2022/03/12 03:21:51;;;;;;;;;;;;;;;9.57;72.18;101362.38;5045756;28;20044;-78
2022/03/12 03:24:17;;;;;;;6.22;5.38;;;;;;;9.56;72.00;101360.66;5063488;28;20030;-78
2022/03/12 03:26:43;;;;;;;6.95;5.97;;;;;;;9.57;72.42;101362.38;5073839;28;20036;-78
2022/03/12 03:29:08;;;;;;;5.63;4.82;;;;;;;9.57;72.58;101353.69;5068051;28;20339;-78
2022/03/12 03:31:35;;;;;;;5.68;5.00;;;;;;;9.57;72.48;101358.91;5072544;28;20063;-79
2022/03/12 03:34:01;;;;;;;5.78;4.80;;;;;;;9.57;72.31;101349.31;5071395;28;20070;-79
2022/03/12 03:36:26;;;;;;;5.32;4.70;;;;;;;9.58;72.80;101360.63;5069459;28;20045;-79
2022/03/12 03:38:52;;;;;;;4.90;4.50;;;;;;;9.56;73.17;101360.66;5045725;28;20037;-79
2022/03/12 03:41:18;;;;;;;7.53;4.45;;;;;;;9.56;74.21;101365.03;5021060;28;20055;-79
2022/03/12 03:43:46;;;;;;;6.65;4.57;;;;;;;9.56;73.73;101363.28;5026092;28;20068;-79
2022/03/12 03:46:15;;;;;;;4.53;4.13;;;;;;;9.56;73.67;101367.66;5059880;28;20029;-79
2022/03/12 03:48:41;;;;;;;4.10;3.80;;;;;;;9.56;73.37;101365.03;5039154;28;20048;-79
2022/03/12 03:51:06;;;;;;;3.90;3.53;;;;;;;9.56;72.75;101367.66;5042528;28;20044;-79
2022/03/12 03:53:31;;;;;;;3.22;2.92;;;;;;;9.57;72.60;101366.75;5036609;28;20063;-80
2022/03/12 03:55:59;;;;;;;3.70;3.40;;;;;;;9.55;72.89;101374.66;5059823;28;20072;-79
2022/03/12 03:58:25;;;;;;;3.65;3.25;;;;;;;9.55;72.94;101373.78;5076352;28;20052;-79
2022/03/12 04:00:59;;;;;;;3.80;3.50;;;;;;;9.53;73.66;101372.97;5078024;28;20056;-79
2022/03/12 04:03:29;;;;;;;4.03;3.25;;;;;;;9.52;73.59;101372.09;5039101;28;20056;-79
2022/03/12 04:05:54;;;;;;;3.22;2.75;;;;;;;9.52;73.01;101379.94;5037201;28;20043;-79
2022/03/12 04:08:21;;;;;;;3.20;3.00;;;;;;;9.52;72.70;101382.56;5059536;28;20032;-79
2022/03/12 04:10:46;;;;;;;3.10;2.80;;;;;;;9.53;72.70;101381.69;5009101;28;20234;-79
2022/03/12 04:13:18;;;;;;;5.10;2.95;;;;;;;9.52;73.07;101387.78;5065300;28;20321;-79
2022/03/12 04:15:43;;;;;;;4.75;2.70;;;;;;;9.52;72.99;101393.03;5069010;28;20045;-79
2022/03/12 04:18:10;;;;;;;2.65;2.45;;;;;;;9.53;73.29;101386.91;5073339;28;20254;-79
2022/03/12 04:20:37;;;;;;;3.60;2.85;;;;;;;9.54;73.05;101387.75;5040132;28;20024;-79
2022/03/12 04:23:04;;;;;;;3.35;2.80;;;;;;;9.54;72.90;101396.44;5058360;28;20064;-79
2022/03/12 04:25:31;;;;;;;3.00;2.80;;;;;;;9.55;72.76;101397.31;5044147;28;20041;-80
2022/03/12 04:27:59;;;;;;;2.70;2.50;;;;;;;9.55;72.92;101402.53;5066746;28;20369;-79
2022/03/12 04:30:25;;;;;;;2.28;2.17;;;;;;;9.54;72.95;101396.44;5039070;28;20341;-79
2022/03/12 04:32:51;;;;;;;3.00;2.40;;;;;;;9.55;72.45;101402.53;5065690;28;20209;-79
2022/03/12 04:35:17;;;;;;;2.30;2.10;;;;;;;9.55;72.28;101406.03;5059653;28;20113;-80
2022/03/12 04:37:43;;;;;;;2.38;2.17;;;;;;;9.55;72.10;101399.91;5068472;28;20048;-79
2022/03/12 04:40:19;;;;;;;3.15;2.88;;;;;;;9.55;71.61;101402.53;5039839;28;20078;-79
2022/03/12 04:42:44;;;;;;;2.10;2.00;;;;;;;9.53;72.03;101399.09;5049541;28;20267;-79
2022/03/12 04:45:12;;;;;;;3.03;2.17;;;;;;;9.54;71.99;101411.28;5048178;28;20052;-79
2022/03/12 04:47:41;;;;;;;3.60;2.90;;;;;;;9.49;73.04;101411.41;5045634;28;20059;-79
2022/03/12 04:50:07;;;;;;;;;;;;;;;9.43;73.81;101401.13;5039951;28;20119;-79
2022/03/12 04:52:33;;;;;;;3.38;3.08;;;;;;;9.39;74.23;101418.66;5048708;28;19931;-79
2022/03/12 04:54:58;;;;;;;2.83;2.60;;;;;;;9.39;73.93;101420.41;5075524;28;20389;-79
2022/03/12 04:57:24;;;;;;;2.58;2.38;;;;;;;9.38;73.54;101418.69;5063828;28;20048;-79
2022/03/12 04:59:49;;;;;;;2.47;2.28;;;;;;;9.39;73.09;101428.25;5042685;28;20037;-79
2022/03/12 05:02:15;;;;;;;2.50;2.30;;;;;;;9.37;73.19;101423.06;5014156;28;20334;-79
2022/03/12 05:04:40;;;;;;;2.05;1.95;;;;;;;9.36;73.61;101423.09;5039395;28;20041;-79
2022/03/12 05:07:08;;;;;;;2.80;2.60;;;;;;;9.36;73.26;101428.31;5039475;28;20494;-80
2022/03/12 05:09:33;;;;;;;2.67;2.47;;;;;;;9.37;72.96;101432.66;5043444;28;20033;-79
2022/03/12 05:12:01;;;;;;;2.42;2.22;;;;;;;9.36;72.75;101433.56;5046360;28;20059;-79
2022/03/12 05:14:26;;;;;;;2.67;2.47;;;;;;;9.36;72.90;101437.00;5039228;28;20089;-79
2022/03/12 05:16:52;;;;;;;2.45;2.22;;;;;;;9.35;72.26;101432.69;5049803;28;20108;-79
2022/03/12 05:19:21;;;;;;;2.50;2.30;;;;;;;9.34;72.71;101430.97;5052494;28;20040;-79
2022/03/12 05:21:46;;;;;;;2.67;2.47;;;;;;;9.35;72.97;101432.69;5047901;28;20366;-79
2022/03/12 05:24:13;;;;;;;3.47;2.80;;;;;;;9.32;73.68;101432.78;5053662;28;20036;-79
2022/03/12 05:26:38;;;;;;;2.40;2.28;;;;;;;9.31;73.01;101438.88;5057183;28;20112;-79
2022/03/12 05:29:03;;;;;;;3.03;2.63;;;;;;;9.29;72.93;101427.63;5043946;28;20041;-79
2022/03/12 05:31:29;;;;;;;2.38;2.17;;;;;;;9.29;73.01;101435.47;5011278;28;20051;-79
2022/03/12 05:33:54;;;;;;;2.20;2.10;;;;;;;9.29;72.66;101442.44;5049326;28;20048;-79
2022/03/12 05:36:20;;;;;;;2.45;2.20;;;;;;;9.29;72.40;101443.31;5026393;28;20082;-79
2022/03/12 05:38:45;;;;;;;2.30;2.10;;;;;;;9.29;72.46;101445.91;5035261;28;20040;-79
2022/03/12 05:41:11;;;;;;;3.85;2.83;;;;;;;9.29;72.33;101450.28;5055262;28;20032;-79
2022/03/12 05:43:40;;;;;;;2.28;2.17;;;;;;;9.28;72.17;101452.06;5045748;28;20347;-79
2022/03/12 05:46:05;;;;;;;2.38;2.17;;;;;;;9.28;72.62;101456.41;5056158;28;20066;-79
2022/03/12 05:48:32;;;;;;;2.45;2.25;;;;;;;9.27;72.42;101459.94;5027946;28;20356;-79
2022/03/12 05:50:59;;;;;;;2.60;2.40;;;;;;;9.27;72.23;101454.69;5036434;28;20115;-79
2022/03/12 05:53:26;;;;;;;2.75;2.13;;;;;;;9.26;71.94;101453.84;5038604;28;20051;-79
2022/03/12 05:55:53;;;;;;;2.20;2.00;;;;;;;9.26;72.25;101450.34;5057105;28;20160;-79
2022/03/12 05:58:20;;;;;;;2.67;2.42;;;;;;;9.24;72.51;101453.03;5028760;28;20029;-79
2022/03/12 06:00:47;;;;;;;3.10;2.08;;;;;;;9.23;72.50;101465.22;5038356;28;20045;-79
2022/03/12 06:03:13;;;;;;;2.55;2.30;;;;;;;9.22;72.47;101466.13;5051892;28;20047;-79
2022/03/12 06:05:42;;;;;;;2.45;2.15;;;;;;;9.22;72.68;101470.47;5043851;28;20261;-79
2022/03/12 06:08:08;;;;;;;2.95;2.70;;;;;;;9.21;72.76;101476.63;5044960;28;20029;-79
2022/03/12 06:10:37;;;;;;;2.58;2.38;;;;;;;9.20;72.61;101470.56;5055336;28;20303;-79
2022/03/12 06:13:06;;;;;;;;;;;;;;;9.20;72.51;101474.91;5064163;28;20033;-79
2022/03/12 06:15:32;;;;;;;2.72;2.50;;;;;;;9.19;72.19;101488.88;5026227;28;20143;-79
2022/03/12 06:17:58;;;;;;;2.60;2.33;;;;;;;9.18;72.39;101480.16;5061034;28;20267;-79
2022/03/12 06:20:24;;;;;;;2.63;2.42;;;;;;;9.18;72.49;101485.38;5032691;28;20032;-79
2022/03/12 06:22:51;;;;;;;2.50;2.30;;;;;;;9.17;72.49;101483.69;5067252;28;20247;-79
2022/03/12 06:25:17;;;;;;;2.50;2.30;;;;;;;9.17;72.34;101483.69;5030141;28;20025;-79
2022/03/12 06:27:47;;;;;;;2.75;2.55;;;;;;;9.17;72.29;101491.53;5046914;28;20052;-79
2022/03/12 06:30:13;;;;;;;2.67;2.47;;;;;;;9.17;72.41;101488.06;5061039;28;20259;-80
2022/03/12 06:32:42;;;;;;;3.55;2.60;;;;;;;9.15;73.36;101492.44;5064946;28;20064;-79
2022/03/12 06:35:08;;;;;;;;;;;;;;;9.14;72.94;101501.19;5041056;28;20225;-79
2022/03/12 06:37:33;;;;;;;2.47;2.28;;;;;;;9.15;72.92;101502.88;5070537;28;20250;-79
2022/03/12 06:40:00;;;;;;;3.08;2.78;;;;;;;9.14;72.93;101495.97;5062422;28;20037;-79
2022/03/12 06:42:32;;;;;;;3.10;2.65;;;;;;;9.13;73.23;101494.22;5044930;28;20049;-79
2022/03/12 06:44:57;;;;;;;2.95;2.75;;;;;;;9.11;73.44;101501.25;5064586;28;20092;-79
2022/03/12 06:47:29;;;;;;;3.38;2.38;;;;;;;9.11;72.88;101509.09;5028059;28;20067;-79
2022/03/12 06:49:55;;;;;;;3.33;2.55;;;;;;;9.11;72.82;101509.94;5057074;28;20033;-79
2022/03/12 06:52:21;;;;;;;2.80;2.45;;;;;;;9.12;72.96;101513.44;5026854;28;20355;-80
2022/03/12 06:54:46;;;;;;;4.57;2.70;;;;;;;9.12;73.46;101514.28;5060820;28;20032;-79
2022/03/12 06:57:12;;;;;;;2.85;2.65;;;;;;;9.12;73.53;101516.06;5059595;28;20040;-79
2022/03/12 06:59:37;;;;;;;4.25;2.53;;;;;;;9.12;73.24;101516.91;5039284;28;20029;-79
2022/03/12 07:02:03;;;;;;;2.53;2.33;;;;;;;9.12;73.17;101516.91;5039680;28;20064;-79
2022/03/12 07:04:28;;;;;;;3.15;2.85;;;;;;;9.13;73.17;101522.97;5057931;28;20066;-79
2022/03/12 07:06:53;;;;;;;2.70;2.50;;;;;;;9.14;73.57;101527.31;5024080;28;20066;-79
2022/03/12 07:09:19;;;;;;;4.10;2.70;;;;;;;9.14;73.17;101525.56;5034036;28;20080;-79
2022/03/12 07:11:44;;;;;;;3.50;2.92;;;;;;;9.15;73.26;101545.59;5063671;28;20040;-79
2022/03/12 07:14:10;;;;;;;2.90;2.60;;;;;;;9.16;73.09;101539.44;5042758;28;20066;-79
2022/03/12 07:16:36;;;;;;;2.83;2.40;;;;;;;9.18;73.06;101544.63;5054202;28;20039;-79
2022/03/12 07:19:03;;;;;;;2.97;2.67;;;;;;;9.18;73.14;101550.72;5043627;28;20067;-79
2022/03/12 07:21:28;;;;;;;2.50;2.30;;;;;;;9.20;73.00;101558.53;5024434;28;20032;-79
2022/03/12 07:23:55;;;;;;;3.88;3.17;;;;;;;9.20;73.73;101567.25;5062899;28;20043;-79
2022/03/12 07:26:21;;;;;;;3.20;2.85;;;;;;;9.20;73.93;101572.47;5032523;28;20324;-79
2022/03/12 07:28:48;;;;;;;2.83;2.53;;;;;;;9.21;73.35;101574.19;5053671;28;20281;-78
2022/03/12 07:31:17;;;;;;;3.20;2.80;;;;;;;9.22;73.90;101577.63;5025902;28;20343;-78
2022/03/12 07:33:43;;;;;;;3.97;2.60;;;;;;;9.23;73.75;101576.75;5052402;28;20041;-78
2022/03/12 07:36:09;;;;;;;2.67;2.47;;;;;;;9.24;74.01;101578.50;5050816;28;20387;-78
2022/03/12 07:38:35;;;;;;;2.95;2.75;;;;;;;9.23;74.15;101585.44;5049902;28;20108;-79
2022/03/12 07:41:00;;;;;;;3.55;3.25;;;;;;;9.23;74.10;101585.44;5057024;28;20072;-78
2022/03/12 07:43:26;;;;;;;3.13;2.70;;;;;;;9.25;74.22;101585.41;5046610;28;20274;-78
2022/03/12 07:45:51;;;;;;;3.22;2.92;;;;;;;9.26;74.01;101592.38;5031615;28;20029;-78
2022/03/12 07:48:17;;;;;;;5.55;4.20;;;;;;;9.25;75.20;101589.78;5031157;28;20040;-78
2022/03/12 07:50:44;;;;;;;4.03;3.20;;;;;;;9.26;75.32;101604.56;5041220;28;20033;-78
2022/03/12 07:53:10;;;;;;;7.43;3.45;;;;;;;9.26;74.97;101602.84;5039522;28;20045;-78
2022/03/12 07:55:35;;;;;;;4.57;3.03;;;;;;;9.27;74.86;101601.91;5020280;28;20040;-78
2022/03/12 07:58:01;;;;;;;4.03;2.95;;;;;;;9.29;75.15;101609.72;5053641;28;20510;-78
2022/03/12 08:00:28;;;;;;;2.92;2.70;;;;;;;9.30;75.24;101606.25;5035256;28;20037;-78
2022/03/12 08:02:54;;;;;;;3.42;2.90;;;;;;;9.32;75.20;101609.66;5019615;28;20240;-78
2022/03/12 08:05:23;;;;;;;4.15;2.70;;;;;;;9.31;75.73;101605.31;5037658;28;20099;-78
2022/03/12 08:07:50;;;;;;;2.92;2.63;;;;;;;9.31;75.88;101607.94;5037964;28;20116;-78
2022/03/12 08:10:15;;;;;;;4.45;3.17;;;;;;;9.33;75.98;101614.00;5032903;28;20047;-78
2022/03/12 08:12:41;;;;;;;3.58;2.78;;;;;;;9.33;75.88;101614.88;5047349;28;20037;-78
2022/03/12 08:15:08;;;;;;;3.17;2.85;;;;;;;9.35;75.98;101620.03;5044274;28;20045;-78
2022/03/12 08:17:34;;;;;;;4.40;3.10;;;;;;;9.36;75.69;101627.84;5036678;28;20041;-78
2022/03/12 08:20:00;;;;;;;5.60;3.10;;;;;;;9.38;75.40;101633.91;5050811;28;20242;-78
2022/03/12 08:22:26;;;;;;;3.90;2.67;;;;;;;9.39;75.44;101635.63;5035896;28;20085;-78
2022/03/12 08:24:52;;;;;;;5.75;3.25;;;;;;;9.39;75.82;101633.03;5029808;28;20072;-78
2022/03/12 08:27:17;;;;;;;19.40;4.07;;;;;;;9.41;75.91;101641.69;5040141;28;20033;-78
2022/03/12 08:29:43;;;;;;;8.52;3.40;;;;;;;9.44;76.01;101645.13;5030070;28;20368;-78
2022/03/12 08:32:10;;;;;;;4.88;3.08;;;;;;;9.45;75.92;101644.22;5020825;28;20115;-78
2022/03/12 08:34:36;;;;;;;5.28;3.35;;;;;;;9.46;75.78;101646.81;5041724;28;20025;-78
2022/03/12 08:37:03;;;;;;;7.07;4.00;;;;;;;9.48;76.14;101646.75;5013012;28;20338;-78
2022/03/12 08:39:28;;;;;;;5.20;3.20;;;;;;;9.51;76.05;101652.78;5051596;28;20044;-78
2022/03/12 08:41:55;;;;;;;4.75;4.07;;;;;;;9.52;76.26;101654.50;5038022;28;20041;-78
2022/03/12 08:44:21;;;;;;;9.65;3.53;;;;;;;9.53;76.32;101666.69;5040250;28;20032;-78
2022/03/12 08:46:47;;;;;;;6.43;3.15;;;;;;;9.55;76.48;101661.41;5029231;28;20049;-78
2022/03/12 08:49:13;;;;;;;5.63;3.63;;;;;;;9.56;76.52;101665.75;5037000;28;20030;-78
2022/03/12 08:51:39;;;;;;;5.60;3.85;;;;;;;9.59;76.55;101676.16;5036288;28;20272;-78
2022/03/12 08:54:05;;;;;;;4.97;3.80;;;;;;;9.61;76.78;101669.97;5026869;28;20046;-78
2022/03/12 08:56:31;;;;;;;6.45;3.35;;;;;;;9.65;76.96;101672.53;5037729;28;20052;-78
2022/03/12 08:58:57;;;;;;;5.07;3.67;;;;;;;9.67;77.05;101684.66;5055163;28;20154;-78
2022/03/12 09:01:23;;;;;;;4.20;3.15;;;;;;;9.70;76.80;101676.75;5059501;28;20051;-78
2022/03/12 09:03:49;;;;;;;7.90;3.55;;;;;;;9.69;76.45;101680.25;5043560;28;20447;-79
2022/03/12 09:06:16;;;;;;;4.43;3.75;;;;;;;9.71;76.78;101678.47;5035622;28;20025;-78
2022/03/12 09:08:42;;;;;;;8.07;3.55;;;;;;;9.72;76.74;101677.56;5038360;28;20402;-78
2022/03/12 09:11:07;;;;;;;4.30;2.88;;;;;;;9.74;76.47;101677.53;5023320;28;20053;-78
2022/03/12 09:13:33;;;;;;;7.40;3.63;;;;;;;9.76;76.29;101683.59;5043344;28;20072;-79
2022/03/12 09:15:58;;;;;;;6.88;3.70;;;;;;;9.74;76.22;101665.31;5015022;28;20041;-79
2022/03/12 09:18:24;;;;;;;6.40;3.20;;;;;;;9.78;76.41;101676.56;5003687;28;20044;-78
2022/03/12 09:20:50;;;;;;;4.28;3.28;;;;;;;9.80;75.86;101672.16;5044185;28;20111;-79
2022/03/12 09:23:17;;;;;;;5.28;3.13;;;;;;;9.81;75.85;101671.28;5038191;28;20028;-78
2022/03/12 09:25:43;;;;;;;3.95;3.20;;;;;;;9.83;76.20;101679.09;5053206;28;20040;-79
2022/03/12 09:28:10;;;;;;;5.20;3.20;;;;;;;9.86;76.39;101677.25;5035957;28;20079;-78
2022/03/12 09:30:36;;;;;;;4.13;2.30;;;;;;;9.84;75.21;101679.06;5053140;28;20257;-79
2022/03/12 09:33:03;;;;;;;5.60;2.88;;;;;;;9.85;74.70;101677.28;5053070;28;20032;-79
2022/03/12 09:35:29;;;;;;;4.00;2.60;;;;;;;9.83;74.48;101681.72;5053533;28;20403;-79
2022/03/12 09:37:55;;;;;;;4.72;2.30;;;;;;;9.83;74.09;101684.31;5039846;28;20051;-79
2022/03/12 09:40:22;;;;;;;5.88;2.42;;;;;;;9.83;73.99;101689.56;5023775;28;20056;-79
2022/03/12 09:42:47;;;;;;;4.07;2.42;;;;;;;9.87;73.92;101688.56;5040728;28;20042;-79
2022/03/12 09:45:14;;;;;;;6.45;3.38;;;;;;;9.89;73.89;101684.16;5033959;28;20393;-79
2022/03/12 09:47:41;;;;;;;4.20;2.30;;;;;;;9.90;73.98;101684.13;5025325;28;20045;-79
2022/03/12 09:50:07;;;;;;;4.43;2.40;;;;;;;9.94;73.94;101682.28;5016995;28;20040;-79
2022/03/12 09:52:33;;;;;;;17.02;2.45;;;;;;;9.97;74.09;101683.09;5036698;28;20069;-79
2022/03/12 09:54:58;;;;;;;7.20;2.28;;;;;;;10.02;74.05;101685.56;5056099;28;20045;-79
2022/03/12 09:57:24;;;;;;;3.45;2.20;;;;;;;10.05;73.34;101682.88;5053725;28;20047;-79
2022/03/12 09:59:50;;;;;;;4.65;2.10;;;;;;;10.06;73.04;101696.81;5039393;28;20065;-79
2022/03/12 10:02:19;;;;;;;5.03;2.22;;;;;;;10.05;72.82;101703.81;5038955;28;20042;-79
2022/03/12 10:04:45;;;;;;;4.10;1.88;;;;;;;10.07;72.76;101704.63;5021321;28;20048;-79
2022/03/12 10:07:10;;;;;;;6.63;2.13;;;;;;;10.10;72.73;101717.66;5031339;28;20041;-79
2022/03/12 10:09:36;;;;;;;5.05;2.00;;;;;;;10.12;73.13;101710.63;5048521;28;20364;-79
2022/03/12 10:12:01;;;;;;;2.97;1.90;;;;;;;10.13;72.73;101711.47;5050735;28;20045;-79
2022/03/12 10:14:28;;;;;;;5.13;2.03;;;;;;;10.15;73.02;101712.28;5029828;28;20041;-79
2022/03/12 10:16:53;;;;;;;5.68;1.90;;;;;;;10.19;73.26;101709.56;5037904;28;20271;-79
2022/03/12 10:19:19;;;;;;;5.35;1.90;;;;;;;10.21;72.74;101725.25;5030594;28;20041;-79
2022/03/12 10:21:45;;;;;;;5.05;1.85;;;;;;;10.23;72.56;101722.59;5034355;28;20390;-79
2022/03/12 10:24:14;;;;;;;3.88;1.80;;;;;;;10.24;72.70;101711.22;5037219;28;20091;-79
2022/03/12 10:26:42;;;;;;;4.78;2.15;;;;;;;10.24;72.29;101703.34;5059538;28;20351;-79
2022/03/12 10:29:09;;;;;;;4.07;2.00;;;;;;;10.27;72.23;101706.75;5039558;28;20028;-79
2022/03/12 10:31:35;;;;;;;3.75;2.17;;;;;;;10.30;72.07;101711.06;5048450;28;20024;-79
2022/03/12 10:34:23;;;;;;;7.68;2.20;;;;;;;10.33;72.22;101704.03;5035200;28;20024;-79
2022/03/12 10:36:50;;;;;;;5.63;2.13;;;;;;;10.35;72.09;101701.34;5036535;28;20075;-79
2022/03/12 10:39:17;;;;;;;3.40;1.75;;;;;;;10.40;72.15;101706.47;5054501;28;20107;-79
2022/03/12 10:41:43;;;;;;;2.70;1.65;;;;;;;10.43;71.80;101704.63;5042875;28;20025;-79
2022/03/12 10:44:11;;;;;;;5.60;1.42;;;;;;;10.46;71.68;101707.19;5048948;28;20048;-79
2022/03/12 10:46:40;;;;;;;3.15;1.80;;;;;;;10.50;71.44;101708.81;5037663;28;20037;-79
2022/03/12 10:49:07;;;;;;;3.38;1.50;;;;;;;10.53;71.25;101707.88;5034984;28;20035;-79
2022/03/12 10:51:35;;;;;;;5.30;1.95;;;;;;;10.54;71.06;101710.44;5059001;28;20064;-79
2022/03/12 10:54:15;;;;;;;4.40;1.80;;;;;;;10.57;70.94;101707.75;5057080;28;20045;-79
2022/03/12 10:56:51;;;;;;;4.47;1.80;;;;;;;10.59;70.48;101710.34;5052191;28;20032;-79
2022/03/12 10:59:21;;;;;;;3.65;1.92;;;;;;;10.59;70.01;101705.09;5054432;28;20059;-79
2022/03/12 11:01:55;;;;;;;3.78;1.70;;;;;;;10.60;70.04;101708.56;5054773;28;20057;-79
2022/03/12 11:04:29;;;;;;;4.47;1.70;;;;;;;10.65;70.24;101717.16;5053580;28;20355;-79
2022/03/12 11:06:59;;;;;;;3.95;1.80;;;;;;;10.66;69.54;101721.50;5028313;28;20029;-79
2022/03/12 11:09:52;;;;;;;3.50;1.83;;;;;;;10.69;70.12;101713.56;5050901;28;20412;-79
2022/03/12 11:12:35;;;;;;;5.82;2.30;;;;;;;10.71;70.19;101722.22;5046309;28;20056;-79
2022/03/12 11:15:16;;;;;;;4.40;1.80;;;;;;;10.75;70.44;101723.84;5035440;28;20041;-79
2022/03/12 11:17:45;;;;;;;4.63;1.73;;;;;;;10.80;70.35;101721.97;5051818;28;20044;-79
2022/03/12 11:20:35;;;;;;;2.92;1.73;;;;;;;10.81;70.18;101730.72;5034561;28;20029;-79
2022/03/12 11:23:17;;;;;;;3.05;1.73;;;;;;;10.84;69.80;101726.25;5033807;28;20055;-79
2022/03/12 11:25:56;;;;;;;4.70;2.05;;;;;;;10.88;70.01;101737.50;5052102;28;20049;-79
2022/03/12 11:28:22;;;;;;;3.53;1.83;;;;;;;10.89;69.64;101731.34;5020179;28;20268;-79